createdAt,value
2022-08-22T00:01:07.584Z,96.21
2022-08-22T00:02:41.976Z,44.42
2022-08-22T00:02:56.360Z,80.93
2022-08-22T00:03:03.075Z,43.84
2022-08-22T00:03:15.676Z,92.46
2022-08-22T00:03:55.026Z,96.09
2022-08-22T00:06:42.165Z,97.52
2022-08-22T00:09:29.571Z,96.50
2022-08-22T00:12:18.259Z,98.95
2022-08-22T00:14:58.339Z,98.03
2022-08-22T00:17:49.426Z,98.75
2022-08-22T00:20:37.479Z,98.80
2022-08-22T00:23:32.079Z,100.00
2022-08-22T00:26:06.482Z,99.23
2022-08-22T00:28:47.040Z,99.71
2022-08-22T00:31:35.712Z,100.00
2022-08-22T00:34:18.249Z,100.00
2022-08-22T00:37:10.869Z,100.00
2022-08-22T00:39:46.117Z,100.00
2022-08-22T00:42:29.322Z,100.00
2022-08-22T00:45:16.848Z,100.00
2022-08-22T00:47:56.257Z,100.00
2022-08-22T00:50:42.968Z,100.00
2022-08-22T00:53:22.359Z,100.00
2022-08-22T00:56:26.461Z,100.00
2022-08-22T00:59:22.721Z,100.00
2022-08-22T01:02:34.918Z,100.00
2022-08-22T01:05:17.687Z,100.00
2022-08-22T01:07:57.322Z,100.00
2022-08-22T01:10:44.882Z,100.00
2022-08-22T01:13:36.815Z,100.00
2022-08-22T01:16:17.531Z,100.00
2022-08-22T01:19:31.993Z,100.00
2022-08-22T01:22:18.772Z,100.00
2022-08-22T01:28:17.213Z,100.00
2022-08-22T01:31:19.784Z,100.00
2022-08-22T01:34:13.043Z,100.00
2022-08-22T01:37:11.821Z,100.00
2022-08-22T01:40:02.680Z,100.00
2022-08-22T01:42:47.687Z,100.00
2022-08-22T01:45:14.036Z,100.00
2022-08-22T01:47:54.203Z,100.00
2022-08-22T01:50:27.061Z,100.00
2022-08-22T01:53:04.517Z,100.00
2022-08-22T01:56:05.584Z,100.00
2022-08-22T01:58:36.199Z,100.00
2022-08-22T02:01:17.667Z,100.00
2022-08-22T02:04:00.944Z,100.00
2022-08-22T02:06:49.185Z,100.00
2022-08-22T02:09:52.397Z,100.00
2022-08-22T02:12:25.617Z,100.00
2022-08-22T02:15:12.436Z,100.00
2022-08-22T02:18:02.323Z,100.00
2022-08-22T02:20:40.629Z,100.00
2022-08-22T02:23:32.481Z,100.00
2022-08-22T02:26:01.609Z,100.00
2022-08-22T02:28:41.087Z,100.00
2022-08-22T02:31:33.090Z,100.00
2022-08-22T02:34:03.261Z,100.00
2022-08-22T02:36:40.446Z,100.00
2022-08-22T02:39:45.786Z,100.00
2022-08-22T02:42:34.365Z,100.00
2022-08-22T02:45:21.411Z,100.00
2022-08-22T02:48:14.747Z,100.00
2022-08-22T02:51:01.535Z,100.00
2022-08-22T02:54:02.210Z,100.00
2022-08-22T02:56:37.207Z,100.00
2022-08-22T02:59:32.111Z,100.00
2022-08-22T03:02:37.044Z,100.00
2022-08-22T03:05:30.369Z,100.00
2022-08-22T03:08:05.169Z,100.00
2022-08-22T03:10:40.935Z,100.00
2022-08-22T03:13:12.004Z,100.00
2022-08-22T03:15:49.227Z,100.00
2022-08-22T03:18:22.716Z,100.00
2022-08-22T03:20:59.152Z,100.00
2022-08-22T03:23:28.404Z,100.00
2022-08-22T03:26:07.622Z,100.00
2022-08-22T03:29:00.503Z,100.00
2022-08-22T03:31:29.137Z,100.00
2022-08-22T03:34:31.164Z,100.00
2022-08-22T03:37:00.437Z,100.00
2022-08-22T03:39:48.703Z,100.00
2022-08-22T03:42:50.061Z,100.00
2022-08-22T03:45:25.955Z,100.00
2022-08-22T03:48:13.558Z,100.00
2022-08-22T03:50:55.178Z,100.00
2022-08-22T03:53:46.275Z,100.00
2022-08-22T03:56:26.181Z,100.00
2022-08-22T03:59:34.399Z,100.00
2022-08-22T04:02:42.338Z,100.00
2022-08-22T04:05:33.989Z,100.00
2022-08-22T04:08:26.749Z,100.00
2022-08-22T04:11:34.553Z,100.00
2022-08-22T04:14:15.830Z,100.00
2022-08-22T04:17:11.412Z,100.00
2022-08-22T04:19:46.793Z,100.00
2022-08-22T04:22:13.226Z,100.00
2022-08-22T04:24:55.129Z,100.00
2022-08-22T04:27:36.611Z,100.00
2022-08-22T04:30:18.439Z,100.00
2022-08-22T04:32:52.906Z,100.00
2022-08-22T04:35:31.289Z,100.00
2022-08-22T04:38:22.099Z,100.00
2022-08-22T04:40:54.274Z,100.00
2022-08-22T04:43:40.400Z,100.00
2022-08-22T04:46:23.677Z,100.00
2022-08-22T04:48:59.161Z,100.00
2022-08-22T04:51:41.500Z,100.00
2022-08-22T04:54:29.606Z,100.00
2022-08-22T04:57:09.309Z,100.00
2022-08-22T04:59:36.562Z,100.00
2022-08-22T05:02:08.602Z,100.00
2022-08-22T05:04:40.984Z,100.00
2022-08-22T05:07:15.098Z,100.00
2022-08-22T05:09:53.752Z,100.00
2022-08-22T05:12:27.078Z,100.00
2022-08-22T05:15:23.137Z,100.00
2022-08-22T05:17:53.254Z,100.00
2022-08-22T05:20:23.489Z,100.00
2022-08-22T05:23:00.084Z,100.00
2022-08-22T05:25:30.915Z,100.00
2022-08-22T05:28:12.152Z,100.00
2022-08-22T05:30:39.971Z,100.00
2022-08-22T05:33:16.427Z,100.00
2022-08-22T05:35:59.867Z,100.00
2022-08-22T05:38:35.143Z,100.00
2022-08-22T05:41:08.618Z,100.00
2022-08-22T05:43:40.613Z,100.00
2022-08-22T05:46:15.965Z,100.00
2022-08-22T05:48:59.854Z,100.00
2022-08-22T05:51:36.434Z,100.00
2022-08-22T05:54:22.849Z,100.00
2022-08-22T05:57:26.311Z,100.00
2022-08-22T06:00:01.177Z,100.00
2022-08-22T06:03:01.365Z,100.00
2022-08-22T06:05:32.857Z,100.00
2022-08-22T06:08:14.248Z,100.00
2022-08-22T06:10:48.274Z,100.00
2022-08-22T06:13:34.877Z,100.00
2022-08-22T06:16:25.992Z,100.00
2022-08-22T06:18:53.250Z,100.00
2022-08-22T06:21:33.726Z,100.00
2022-08-22T06:24:09.657Z,100.00
2022-08-22T06:26:39.972Z,100.00
2022-08-22T06:29:08.523Z,100.00
2022-08-22T06:31:48.096Z,100.00
2022-08-22T06:34:18.066Z,100.00
2022-08-22T06:36:48.470Z,100.00
2022-08-22T06:39:18.448Z,100.00
2022-08-22T06:41:55.062Z,100.00
2022-08-22T06:44:26.919Z,100.00
2022-08-22T06:46:57.867Z,100.00
2022-08-22T06:49:26.708Z,100.00
2022-08-22T06:51:59.865Z,100.00
2022-08-22T06:54:34.286Z,100.00
2022-08-22T06:57:03.297Z,100.00
2022-08-22T06:59:33.669Z,100.00
2022-08-22T07:02:16.457Z,100.00
2022-08-22T07:04:43.547Z,100.00
2022-08-22T07:07:10.028Z,100.00
2022-08-22T07:09:40.333Z,100.00
2022-08-22T07:12:19.974Z,100.00
2022-08-22T07:14:52.007Z,100.00
2022-08-22T07:17:22.738Z,100.00
2022-08-22T07:20:08.302Z,100.00
2022-08-22T07:22:37.435Z,100.00
2022-08-22T07:25:12.708Z,100.00
2022-08-22T07:27:48.852Z,100.00
2022-08-22T07:30:28.084Z,100.00
2022-08-22T07:33:25.678Z,100.00
2022-08-22T07:35:53.581Z,100.00
2022-08-22T07:38:43.025Z,100.00
2022-08-22T07:41:20.788Z,100.00
2022-08-22T07:44:19.248Z,100.00
2022-08-22T07:47:11.448Z,100.00
2022-08-22T07:49:57.562Z,100.00
2022-08-22T07:52:25.056Z,100.00
2022-08-22T07:55:20.665Z,100.00
2022-08-22T07:57:55.489Z,100.00
2022-08-22T08:00:23.684Z,100.00
2022-08-22T08:02:54.271Z,100.00
2022-08-22T08:05:24.001Z,100.00
2022-08-22T08:07:53.889Z,100.00
2022-08-22T08:10:28.458Z,100.00
2022-08-22T08:13:02.334Z,99.62
2022-08-22T08:15:32.197Z,98.56
2022-08-22T08:18:03.783Z,97.68
2022-08-22T08:20:32.472Z,96.47
2022-08-22T08:22:59.521Z,95.30
2022-08-22T08:25:29.305Z,93.85
2022-08-22T08:28:17.139Z,92.23
2022-08-22T08:30:55.307Z,91.04
2022-08-22T08:33:26.924Z,89.66
2022-08-22T08:36:19.520Z,83.77
2022-08-22T08:39:14.129Z,84.22
2022-08-22T08:42:03.385Z,81.39
2022-08-22T08:44:38.840Z,85.04
2022-08-22T08:47:42.808Z,79.65
2022-08-22T08:50:24.046Z,79.29
2022-08-22T08:52:53.179Z,81.63
2022-08-22T08:55:30.815Z,76.24
2022-08-22T08:58:07.020Z,77.46
2022-08-22T09:00:51.141Z,66.05
2022-08-22T09:03:59.238Z,66.88
2022-08-22T09:09:35.150Z,66.92
2022-08-22T09:12:13.563Z,64.08
2022-08-22T09:15:11.810Z,61.56
2022-08-22T09:18:04.657Z,61.93
2022-08-22T09:20:49.290Z,58.23
2022-08-22T09:23:53.902Z,57.11
2022-08-22T09:26:52.098Z,55.98
2022-08-22T09:29:55.192Z,55.93
2022-08-22T09:32:42.276Z,56.71
2022-08-22T09:35:27.380Z,55.55
2022-08-22T09:37:53.827Z,57.92
2022-08-22T09:40:15.327Z,69.85
2022-08-22T09:40:52.279Z,54.97
2022-08-22T09:43:24.700Z,56.86
2022-08-22T09:46:06.065Z,52.52
2022-08-22T09:49:07.776Z,51.08
2022-08-22T09:52:15.145Z,50.63
2022-08-22T09:55:41.032Z,49.49
2022-08-22T09:58:41.763Z,49.94
2022-08-22T10:01:33.309Z,47.51
2022-08-22T10:04:26.103Z,45.51
2022-08-22T10:07:12.174Z,44.67
2022-08-22T10:09:58.824Z,42.62
2022-08-22T10:12:36.570Z,42.91
2022-08-22T10:15:41.195Z,40.27
2022-08-22T10:18:22.540Z,42.38
2022-08-22T10:21:09.491Z,39.66
2022-08-22T10:23:45.836Z,40.79
2022-08-22T10:26:44.428Z,39.78
2022-08-22T10:29:25.934Z,39.11
2022-08-22T10:32:27.016Z,39.28
2022-08-22T10:34:59.597Z,40.50
2022-08-22T10:37:53.356Z,38.27
2022-08-22T10:40:29.147Z,38.00
2022-08-22T10:43:07.945Z,39.34
2022-08-22T10:45:39.714Z,39.14
2022-08-22T10:48:30.650Z,37.09
2022-08-22T10:51:43.136Z,37.26
2022-08-22T10:54:37.347Z,36.65
2022-08-22T10:57:26.802Z,35.99
2022-08-22T11:00:22.726Z,35.13
2022-08-22T11:03:02.433Z,35.89
2022-08-22T11:05:35.451Z,35.67
2022-08-22T11:08:34.619Z,34.90
2022-08-22T11:11:19.043Z,34.78
2022-08-22T11:14:19.267Z,33.00
2022-08-22T11:16:56.383Z,34.01
2022-08-22T11:19:34.018Z,32.77
2022-08-22T11:22:25.353Z,32.48
2022-08-22T11:25:35.844Z,32.59
2022-08-22T11:28:05.381Z,33.30
2022-08-22T11:30:44.914Z,32.21
2022-08-22T11:33:33.813Z,31.86
2022-08-22T11:36:42.232Z,29.88
2022-08-22T11:39:30.669Z,30.38
2022-08-22T11:42:06.697Z,30.29
2022-08-22T11:44:50.197Z,29.42
2022-08-22T11:47:24.802Z,29.42
2022-08-22T11:50:13.429Z,29.00
2022-08-22T11:52:55.546Z,29.86
2022-08-22T11:55:29.617Z,28.07
2022-08-22T11:58:06.737Z,27.73
2022-08-22T12:00:55.280Z,26.90
2022-08-22T12:03:36.570Z,27.13
2022-08-22T12:06:39.327Z,27.16
2022-08-22T12:09:27.776Z,27.51
2022-08-22T12:12:33.991Z,27.63
2022-08-22T12:15:08.940Z,28.59
2022-08-22T12:18:00.943Z,27.42
2022-08-22T12:21:00.441Z,27.60
2022-08-22T12:23:48.769Z,28.17
2022-08-22T12:26:55.691Z,26.90
2022-08-22T12:29:57.651Z,26.69
2022-08-22T12:32:39.854Z,26.64
2022-08-22T12:35:16.643Z,26.42
2022-08-22T12:38:28.453Z,26.97
2022-08-22T12:41:12.187Z,27.50
2022-08-22T12:44:06.232Z,26.93
2022-08-22T12:46:52.124Z,27.11
2022-08-22T12:49:36.885Z,27.23
2022-08-22T12:52:25.064Z,27.77
2022-08-22T12:55:08.950Z,28.25
2022-08-22T12:57:56.584Z,28.02
2022-08-22T13:00:40.287Z,27.48
2022-08-22T13:03:13.027Z,28.38
2022-08-22T13:05:56.287Z,28.38
2022-08-22T13:08:33.369Z,28.56
2022-08-22T13:11:22.833Z,28.05
2022-08-22T13:13:57.318Z,28.26
2022-08-22T13:16:26.185Z,29.16
2022-08-22T13:19:00.344Z,29.00
2022-08-22T13:21:39.940Z,28.99
2022-08-22T13:24:12.397Z,28.57
2022-08-22T13:26:58.295Z,28.35
2022-08-22T13:29:39.552Z,29.03
2022-08-22T13:32:18.910Z,28.77
2022-08-22T13:34:55.010Z,28.82
2022-08-22T13:37:29.014Z,29.09
2022-08-22T13:40:03.740Z,29.06
2022-08-22T13:42:40.073Z,29.22
2022-08-22T13:45:14.070Z,29.09
2022-08-22T13:47:49.261Z,28.75
2022-08-22T13:50:23.070Z,28.79
2022-08-22T13:53:05.734Z,29.40
2022-08-22T13:55:43.989Z,29.51
2022-08-22T13:58:31.536Z,29.63
2022-08-22T14:01:25.567Z,29.50
2022-08-22T14:03:54.834Z,29.79
2022-08-22T14:06:36.950Z,29.98
2022-08-22T14:09:32.395Z,29.76
2022-08-22T14:12:22.818Z,29.53
2022-08-22T14:14:56.825Z,29.65
2022-08-22T14:17:32.617Z,29.89
2022-08-22T14:20:11.198Z,29.90
2022-08-22T14:22:40.915Z,29.74
2022-08-22T14:25:17.045Z,29.77
2022-08-22T14:27:58.077Z,29.71
2022-08-22T14:30:29.850Z,29.79
2022-08-22T14:33:13.206Z,29.19
2022-08-22T14:35:54.805Z,29.43
2022-08-22T14:38:40.614Z,29.69
2022-08-22T14:41:23.444Z,29.58
2022-08-22T14:44:00.415Z,28.94
2022-08-22T14:46:53.325Z,29.02
2022-08-22T14:49:28.635Z,28.36
2022-08-22T14:52:43.318Z,27.98
2022-08-22T14:55:20.491Z,28.42
2022-08-22T14:58:00.588Z,28.41
2022-08-22T15:00:39.736Z,28.64
2022-08-22T15:03:15.972Z,28.52
2022-08-22T15:05:59.286Z,27.99
2022-08-22T15:08:34.051Z,28.30
2022-08-22T15:11:22.310Z,28.03
2022-08-22T15:14:13.690Z,28.49
2022-08-22T15:16:44.942Z,28.88
2022-08-22T15:19:27.348Z,28.25
2022-08-22T15:22:11.226Z,27.82
2022-08-22T15:24:57.476Z,27.90
2022-08-22T15:27:26.525Z,28.31
2022-08-22T15:29:57.640Z,28.38
2022-08-22T15:32:28.275Z,28.48
2022-08-22T15:35:08.561Z,27.73
2022-08-22T15:38:01.568Z,28.35
2022-08-22T15:40:42.264Z,28.37
2022-08-22T15:43:23.615Z,28.06
2022-08-22T15:46:07.081Z,28.43
2022-08-22T15:48:39.046Z,28.59
2022-08-22T15:51:10.253Z,28.30
2022-08-22T15:54:00.687Z,28.28
2022-08-22T15:56:30.606Z,28.58
2022-08-22T15:59:21.317Z,28.01
2022-08-22T16:01:55.133Z,28.29
2022-08-22T16:04:35.519Z,28.05
2022-08-22T16:07:19.033Z,28.14
2022-08-22T16:09:50.466Z,28.01
2022-08-22T16:12:45.764Z,28.19
2022-08-22T16:15:56.379Z,28.71
2022-08-22T16:18:42.642Z,28.98
2022-08-22T16:21:14.228Z,29.00
2022-08-22T16:23:49.928Z,29.28
2022-08-22T16:26:16.532Z,29.50
2022-08-22T16:28:59.139Z,29.32
2022-08-22T16:31:33.731Z,29.43
2022-08-22T16:34:26.073Z,29.82
2022-08-22T16:37:27.544Z,29.54
2022-08-22T16:40:01.574Z,30.00
2022-08-22T16:43:08.336Z,30.36
2022-08-22T16:45:53.221Z,30.78
2022-08-22T16:48:33.350Z,31.06
2022-08-22T16:51:18.708Z,30.29
2022-08-22T16:54:40.477Z,30.56
2022-08-22T16:57:30.465Z,30.98
2022-08-22T17:00:25.749Z,31.17
2022-08-22T17:02:58.223Z,31.36
2022-08-22T17:05:46.406Z,32.22
2022-08-22T17:08:19.589Z,32.35
2022-08-22T17:11:01.573Z,33.20
2022-08-22T17:13:33.849Z,33.36
2022-08-22T17:16:23.741Z,35.14
2022-08-22T17:19:12.922Z,35.78
2022-08-22T17:21:51.669Z,36.14
2022-08-22T17:24:31.824Z,37.62
2022-08-22T17:27:27.183Z,37.56
2022-08-22T17:30:02.616Z,36.97
2022-08-22T17:32:59.851Z,39.52
2022-08-22T17:35:44.235Z,38.58
2022-08-22T17:38:51.837Z,38.92
2022-08-22T17:41:46.011Z,38.92
2022-08-22T17:44:17.333Z,38.56
2022-08-22T17:46:55.327Z,39.90
2022-08-22T17:49:51.019Z,40.45
2022-08-22T17:52:35.764Z,40.86
2022-08-22T17:55:12.908Z,39.81
2022-08-22T17:57:57.515Z,40.82
2022-08-22T18:00:24.247Z,40.04
2022-08-22T18:03:02.265Z,39.92
2022-08-22T18:05:36.488Z,39.63
2022-08-22T18:11:16.463Z,39.85
2022-08-22T18:14:05.275Z,40.98
2022-08-22T18:16:45.889Z,41.59
2022-08-22T18:19:36.822Z,41.56
2022-08-22T18:22:12.767Z,41.59
2022-08-22T18:24:47.889Z,41.36
2022-08-22T18:27:34.762Z,41.28
2022-08-22T18:30:11.030Z,41.59
2022-08-22T18:32:46.794Z,41.58
2022-08-22T18:35:22.454Z,42.79
2022-08-22T18:38:19.249Z,43.91
2022-08-22T18:40:53.620Z,43.40
2022-08-22T18:43:36.093Z,43.22
2022-08-22T18:46:24.745Z,43.55
2022-08-22T18:49:14.180Z,43.64
2022-08-22T18:51:38.850Z,44.34
2022-08-22T18:54:05.286Z,44.76
2022-08-22T18:56:33.059Z,44.88
2022-08-22T18:59:30.866Z,46.34
2022-08-22T19:02:18.709Z,46.07
2022-08-22T19:05:11.949Z,47.11
2022-08-22T19:07:55.292Z,46.86
2022-08-22T19:10:58.876Z,47.22
2022-08-22T19:13:46.454Z,47.10
2022-08-22T19:16:37.830Z,48.76
2022-08-22T19:19:50.458Z,49.33
2022-08-22T19:22:19.854Z,48.95
2022-08-22T19:25:27.725Z,49.49
2022-08-22T19:28:06.305Z,49.85
2022-08-22T19:31:21.621Z,49.64
2022-08-22T19:34:13.693Z,50.70
2022-08-22T19:36:40.565Z,49.63
2022-08-22T19:39:09.722Z,50.17
2022-08-22T19:41:58.017Z,51.01
2022-08-22T19:44:27.357Z,50.29
2022-08-22T19:47:29.289Z,51.84
2022-08-22T19:50:16.849Z,51.57
2022-08-22T19:53:03.190Z,52.27
2022-08-22T19:55:38.874Z,52.57
2022-08-22T19:58:10.177Z,52.18
2022-08-22T20:00:54.269Z,52.64
2022-08-22T20:03:40.574Z,52.63
2022-08-22T20:06:44.095Z,52.82
2022-08-22T20:09:23.342Z,52.81
2022-08-22T20:12:13.274Z,52.59
2022-08-22T20:14:44.566Z,52.72
2022-08-22T20:17:25.937Z,54.04
2022-08-22T20:23:00.533Z,54.78
2022-08-22T20:25:42.500Z,57.59
2022-08-22T20:28:29.827Z,55.88
2022-08-22T20:31:07.548Z,55.85
2022-08-22T20:33:37.815Z,55.57
2022-08-22T20:36:18.578Z,55.45
2022-08-22T20:38:58.979Z,55.85
2022-08-22T20:41:40.517Z,57.15
2022-08-22T20:44:12.454Z,58.06
2022-08-22T20:46:55.067Z,59.97
2022-08-22T20:49:29.409Z,59.54
2022-08-22T20:51:59.462Z,59.15
2022-08-22T20:54:30.935Z,58.54
2022-08-22T20:57:16.901Z,60.40
2022-08-22T20:59:52.787Z,61.70
2022-08-22T21:02:24.368Z,61.54
2022-08-22T21:04:57.129Z,61.27
2022-08-22T21:07:32.978Z,60.83
2022-08-22T21:10:39.815Z,61.47
2022-08-22T21:13:28.269Z,64.48
2022-08-22T21:15:59.933Z,62.82
2022-08-22T21:18:33.877Z,62.75
2022-08-22T21:21:18.032Z,63.85
2022-08-22T21:23:47.296Z,62.59
2022-08-22T21:26:19.694Z,63.26
2022-08-22T21:28:49.174Z,63.70
2022-08-22T21:31:21.322Z,64.14
2022-08-22T21:33:50.436Z,63.92
2022-08-22T21:36:20.522Z,64.55
2022-08-22T21:38:52.568Z,65.04
2022-08-22T21:42:07.733Z,67.25
2022-08-22T21:44:37.043Z,65.13
2022-08-22T21:47:30.902Z,67.53
2022-08-22T21:50:13.109Z,67.86
2022-08-22T21:53:00.148Z,67.23
2022-08-22T21:55:30.492Z,66.49
2022-08-22T21:58:06.486Z,67.02
2022-08-22T22:00:48.569Z,67.78
2022-08-22T22:03:17.753Z,67.49
2022-08-22T22:05:44.676Z,67.41
2022-08-22T22:08:11.881Z,68.22
2022-08-22T22:10:40.679Z,68.77
2022-08-22T22:13:08.266Z,69.16
2022-08-22T22:15:40.267Z,70.46
2022-08-22T22:18:06.910Z,70.66
2022-08-22T22:20:34.044Z,71.63
2022-08-22T22:23:00.601Z,72.04
2022-08-22T22:25:40.759Z,72.46
2022-08-22T22:28:30.899Z,72.55
2022-08-22T22:30:57.415Z,72.56
2022-08-22T22:33:29.929Z,72.90
2022-08-22T22:35:59.904Z,73.04
2022-08-22T22:38:26.369Z,72.99
2022-08-22T22:40:52.899Z,73.60
2022-08-22T22:43:19.651Z,74.15
2022-08-22T22:45:46.276Z,74.42
2022-08-22T22:48:17.411Z,75.54
2022-08-22T22:50:50.883Z,75.90
2022-08-22T22:53:19.514Z,76.26
2022-08-22T22:55:48.066Z,76.53
2022-08-22T22:58:27.369Z,77.31
2022-08-22T23:00:53.829Z,77.09
2022-08-22T23:03:21.428Z,77.25
2022-08-22T23:05:47.936Z,77.67
2022-08-22T23:08:14.341Z,78.22
2022-08-22T23:10:40.782Z,78.81
2022-08-22T23:13:07.269Z,80.24
2022-08-22T23:15:33.671Z,80.28
2022-08-22T23:18:00.414Z,80.66
2022-08-22T23:20:26.944Z,80.37
2022-08-22T23:22:53.424Z,80.87
2022-08-22T23:25:19.953Z,80.59
2022-08-22T23:27:58.990Z,81.51
2022-08-22T23:30:25.625Z,81.68
2022-08-22T23:32:52.057Z,81.85
2022-08-22T23:35:18.463Z,81.86
2022-08-22T23:37:44.966Z,82.29
2022-08-22T23:40:11.677Z,82.22
2022-08-22T23:42:38.197Z,82.84
2022-08-22T23:45:05.117Z,83.16
2022-08-22T23:49:57.948Z,83.68
2022-08-22T23:52:25.368Z,84.25
2022-08-22T23:54:54.509Z,84.23
2022-08-22T23:57:26.358Z,85.25
2022-08-22T23:59:57.826Z,85.92
